KLAW

Lawton-Fort Sill Regional Airport

Lawton, Oklahoma, USA
METAR KLAW 210653Z AUTO 00000KT 6SM BR CLR 16/16 A3005 RMK AO2 SLP168 T01610161
Observed Flight Rules
May-21 @ 06:53 UTC (19 minutes ago) Visual Flight Rules
Visibility Clouds Conditions
6 miles
  • Clear skies
  • Mist
Temperatures Readings
Current 16°C / 61°F
Dewpoint 16°C / 61°F
Humidity 100%
Altimeter 30.05" Hg
Pressure 1016.8 hPa
Elevation 337
METAR KLAW 210653Z AUTO 00000KT 6SM BR CLR 16/16 A3005 RMK AO2 SLP168 T01610161
Observed Flight Rules
May-21 @ 06:53 UTC
(19 minutes ago)
VFR
Clouds
  • Clear skies
Conditions
  • Mist
Temperature Dewpoint
16°C / 61°F 16°C / 61°F
Humidity Altimeter Pressure
100% 30.05" Hg 1016.8 hPa